OAIXVLLB

Guest
Details From OAIX - Bagram
To VLLB - Luang Phabang Intl
Flight Number -
Tags Generated
Created
Modified
Stats Distance 1,961 nm / 3,632 km
Max Altitude 0 ft / 0 m
Waypoints 5
Social Downloads 1
Likes 0
Share VATSIM

Download

Looking for another format? Having issues loading an existing format? Contact us
Advertisement - Login to hide

Notes

Generated

Route

OAIX RN025 BPN LPB VLLB

ID Type Via Altitude Latitude Longitude Leg Dist Tot Dist Heading (true) Name
O OAIX APT - 0 ft / 0 m 34.93431˚ 69.25700˚ - 0 nm - -
RN025 FIX - 0 ft / 0 m 33.62425˚ 73.08106˚ 205 nm 205 nm 111° / 114° -
BPN VOR - 0 ft / 0 m 25.70650˚ 91.97869˚ 1092 nm 1297 nm 111° / 120° BARAPANI VOR-DME
LPB VOR - 0 ft / 0 m 19.89945˚ 102.16033˚ 662 nm 1960 nm 120° / 124° LUANG PHABANG VOR-DME
O VLLB APT - 0 ft / 0 m 19.89247˚ 102.15163˚ 0 nm 1960 nm 230° / 230° -

Altitude Profile

Advertisement - Login to hide

Weather


0- 5 10 15 20 25 30 35+ Temperature / ° C

Clouds and Precipitation
Forecast for 2017-12-13 06:00 UTC. Updated 23 minutes ago

Ground ~20,000 ft ~40,000 ft Winds

OAIX

Details ICAO OAIX (BPM)
Name BAGRAM
Region Afghanistan
Timezone Asia/Kabul (UTC+4.5)
Stats Elevation 4,895 ft / 1,492 m (AMSL)
Location 34.946139° 69.264972°
Runways 1
Magnetic Variation 3.269° E

METAR

OAIX 130058Z 06004KT 9999 OVC065 02/M01 A3008 RMK AO2A SLP162 T00241007

Decode

TAF

TAF AMD OAIX 121807Z 1218/1321 01009KT 8000 HZ SCT080 QNH2990INS BECMG 1222/1223 VRB06KT 6000 HZ BKN070 QNH2999INS BECMG 1307/1308 04009KT 6000 -SHRA BKN050 QNH2992INS BECMG 1317/1318 04009KT 6000 -SHRASN BKN040 QNH3000INS TX13/1310Z TNM03/1300Z

Decode

Departure Runways

ID Width Length Bearing (true) Bearing (mag) Surface Threshold Offset Overrun Length
03 180 ft / 55 m 9,865 ft / 3,007 m 28.90° 25.63° Concrete 0 ft / 0 m 0 ft / 0 m
21 180 ft / 55 m 9,865 ft / 3,007 m 208.91° 205.64° Concrete 0 ft / 0 m 0 ft / 0 m

VLLB

Details ICAO VLLB (LPQ)
Name LUANG PHABANG INTL
Region Laos
Timezone Asia/Vientiane (UTC+7.0)
Stats Elevation 955 ft / 291 m (AMSL)
Location 19.897255° 102.160844°
Runways 1
Magnetic Variation 0.994° W

METAR

VLLB 130100Z 00000KT 1000 BCFG OVC006 22/21 Q1013 NOSIG

Decode

TAF

TAF VLLB 122300Z 1300/1324 02004KT 9999 SCT020 SCT050 TEMPO 1314/1320 3000 BR SCT010 BKN080

Decode

Destination Runways

ID Width Length Bearing (true) Bearing (mag) Surface Threshold Offset Overrun Length
06 148 ft / 45 m 7,224 ft / 2,202 m 61.07° 62.06° Asphalt 0 ft / 0 m 195 ft / 59 m
24 148 ft / 45 m 7,224 ft / 2,202 m 241.07° 242.06° Asphalt 0 ft / 0 m 195 ft / 59 m